sensor_id;sensor_type;location;lat;lon;timestamp;pressure;altitude;pressure_sealevel;temperature
49593;BMP280;35499;51.482;4.264;2023-07-31T00:00:04;101094.41;;;17.50
49593;BMP280;35499;51.482;4.264;2023-07-31T00:02:29;101079.69;;;17.51
49593;BMP280;35499;51.482;4.264;2023-07-31T00:04:54;101083.13;;;17.51
49593;BMP280;35499;51.482;4.264;2023-07-31T00:07:19;101097.00;;;17.50
49593;BMP280;35499;51.482;4.264;2023-07-31T00:09:45;101089.22;;;17.50
49593;BMP280;35499;51.482;4.264;2023-07-31T00:12:10;101091.81;;;17.50
49593;BMP280;35499;51.482;4.264;2023-07-31T00:14:35;101072.78;;;17.50
49593;BMP280;35499;51.482;4.264;2023-07-31T00:17:01;101076.28;;;17.49
49593;BMP280;35499;51.482;4.264;2023-07-31T00:19:26;101084.91;;;17.49
49593;BMP280;35499;51.482;4.264;2023-07-31T00:21:51;101071.94;;;17.49
49593;BMP280;35499;51.482;4.264;2023-07-31T00:24:16;101067.66;;;17.48
49593;BMP280;35499;51.482;4.264;2023-07-31T00:26:42;101075.47;;;17.48
49593;BMP280;35499;51.482;4.264;2023-07-31T00:29:07;101081.56;;;17.47
49593;BMP280;35499;51.482;4.264;2023-07-31T00:31:32;101073.75;;;17.47
49593;BMP280;35499;51.482;4.264;2023-07-31T00:33:58;101071.16;;;17.47
49593;BMP280;35499;51.482;4.264;2023-07-31T00:36:23;101068.56;;;17.47
49593;BMP280;35499;51.482;4.264;2023-07-31T00:38:51;101068.56;;;17.47
49593;BMP280;35499;51.482;4.264;2023-07-31T00:41:17;101064.13;;;17.49
49593;BMP280;35499;51.482;4.264;2023-07-31T00:43:42;101071.94;;;17.49
49593;BMP280;35499;51.482;4.264;2023-07-31T00:46:07;101067.53;;;17.51
49593;BMP280;35499;51.482;4.264;2023-07-31T00:48:34;101065.78;;;17.52
49593;BMP280;35499;51.482;4.264;2023-07-31T00:51:00;101061.44;;;17.52
49593;BMP280;35499;51.482;4.264;2023-07-31T00:53:27;101067.53;;;17.51
49593;BMP280;35499;51.482;4.264;2023-07-31T00:55:52;101061.44;;;17.52
49593;BMP280;35499;51.482;4.264;2023-07-31T00:58:18;101065.78;;;17.52
49593;BMP280;35499;51.482;4.264;2023-07-31T01:00:43;101064.94;;;17.51
49593;BMP280;35499;51.482;4.264;2023-07-31T01:03:09;101057.19;;;17.50
49593;BMP280;35499;51.482;4.264;2023-07-31T01:08:46;101057.38;;;17.45
49593;BMP280;35499;51.482;4.264;2023-07-31T01:11:20;101056.47;;;17.46
49593;BMP280;35499;51.482;4.264;2023-07-31T01:13:46;101065.16;;;17.45
49593;BMP280;35499;51.482;4.264;2023-07-31T01:16:12;101061.69;;;17.46
49593;BMP280;35499;51.482;4.264;2023-07-31T01:18:37;101054.78;;;17.45
49593;BMP280;35499;51.482;4.264;2023-07-31T01:21:22;101059.97;;;17.45
49593;BMP280;35499;51.482;4.264;2023-07-31T01:24:20;101049.72;;;17.42
49593;BMP280;35499;51.482;4.264;2023-07-31T01:26:50;101047.88;;;17.44
49593;BMP280;35499;51.482;4.264;2023-07-31T01:29:26;101062.63;;;17.44
49593;BMP280;35499;51.482;4.264;2023-07-31T01:31:56;101047.16;;;17.41
49593;BMP280;35499;51.482;4.264;2023-07-31T01:34:22;101043.72;;;17.40
49593;BMP280;35499;51.482;4.264;2023-07-31T01:36:48;101039.38;;;17.41
49593;BMP280;35499;51.482;4.264;2023-07-31T01:39:13;101048.91;;;17.40
49593;BMP280;35499;51.482;4.264;2023-07-31T01:41:40;101040.31;;;17.38
49593;BMP280;35499;51.482;4.264;2023-07-31T01:44:06;101040.31;;;17.38
49593;BMP280;35499;51.482;4.264;2023-07-31T01:46:31;101031.72;;;17.38
49593;BMP280;35499;51.482;4.264;2023-07-31T01:48:57;101032.53;;;17.38
49593;BMP280;35499;51.482;4.264;2023-07-31T01:51:22;101024.84;;;17.37
49593;BMP280;35499;51.482;4.264;2023-07-31T01:53:47;101021.38;;;17.37
49593;BMP280;35499;51.482;4.264;2023-07-31T01:56:12;101011.91;;;17.36
49593;BMP280;35499;51.482;4.264;2023-07-31T01:58:38;101007.69;;;17.33
49593;BMP280;35499;51.482;4.264;2023-07-31T02:01:03;101008.50;;;17.34
49593;BMP280;35499;51.482;4.264;2023-07-31T02:03:28;101002.53;;;17.32
49593;BMP280;35499;51.482;4.264;2023-07-31T02:05:54;100998.25;;;17.31
49593;BMP280;35499;51.482;4.264;2023-07-31T02:08:19;101008.63;;;17.31
49593;BMP280;35499;51.482;4.264;2023-07-31T02:10:44;100993.94;;;17.30
49593;BMP280;35499;51.482;4.264;2023-07-31T02:13:10;100997.41;;;17.30
49593;BMP280;35499;51.482;4.264;2023-07-31T02:15:36;100991.34;;;17.30
49593;BMP280;35499;51.482;4.264;2023-07-31T02:18:01;100996.56;;;17.30
49593;BMP280;35499;51.482;4.264;2023-07-31T02:20:26;100988.75;;;17.30
49593;BMP280;35499;51.482;4.264;2023-07-31T02:22:52;100982.66;;;17.31
49593;BMP280;35499;51.482;4.264;2023-07-31T02:25:17;100985.22;;;17.32
49593;BMP280;35499;51.482;4.264;2023-07-31T02:27:42;100986.91;;;17.33
49593;BMP280;35499;51.482;4.264;2023-07-31T02:30:08;100977.34;;;17.34
49593;BMP280;35499;51.482;4.264;2023-07-31T02:32:34;100983.38;;;17.34
49593;BMP280;35499;51.482;4.264;2023-07-31T02:34:59;100977.34;;;17.34
49593;BMP280;35499;51.482;4.264;2023-07-31T02:37:25;100969.50;;;17.35
49593;BMP280;35499;51.482;4.264;2023-07-31T02:39:50;100973.81;;;17.36
49593;BMP280;35499;51.482;4.264;2023-07-31T02:42:16;100964.25;;;17.37
49593;BMP280;35499;51.482;4.264;2023-07-31T02:44:41;100958.19;;;17.38
49593;BMP280;35499;51.482;4.264;2023-07-31T02:47:06;100949.53;;;17.37
49593;BMP280;35499;51.482;4.264;2023-07-31T02:49:32;100961.63;;;17.38
49593;BMP280;35499;51.482;4.264;2023-07-31T02:51:57;100941.66;;;17.38
49593;BMP280;35499;51.482;4.264;2023-07-31T02:54:22;100935.56;;;17.39
49593;BMP280;35499;51.482;4.264;2023-07-31T02:56:48;100944.97;;;17.43
49593;BMP280;35499;51.482;4.264;2023-07-31T02:59:14;100936.22;;;17.44
49593;BMP280;35499;51.482;4.264;2023-07-31T03:01:39;100938.72;;;17.47
49593;BMP280;35499;51.482;4.264;2023-07-31T03:04:04;100942.09;;;17.49
49593;BMP280;35499;51.482;4.264;2023-07-31T03:06:30;100930.81;;;17.50
49593;BMP280;35499;51.482;4.264;2023-07-31T03:08:55;100942.88;;;17.51
49593;BMP280;35499;51.482;4.264;2023-07-31T03:11:21;100939.38;;;17.52
49593;BMP280;35499;51.482;4.264;2023-07-31T03:13:46;100941.97;;;17.52
49593;BMP280;35499;51.482;4.264;2023-07-31T03:16:11;100930.75;;;17.52
49593;BMP280;35499;51.482;4.264;2023-07-31T03:18:36;100937.69;;;17.51
49593;BMP280;35499;51.482;4.264;2023-07-31T03:21:02;100942.03;;;17.51
49593;BMP280;35499;51.482;4.264;2023-07-31T03:23:27;100936.03;;;17.49
49593;BMP280;35499;51.482;4.264;2023-07-31T03:26:00;100925.84;;;17.44
49593;BMP280;35499;51.482;4.264;2023-07-31T03:28:26;100914.88;;;17.38
49593;BMP280;35499;51.482;4.264;2023-07-31T03:30:52;100914.13;;;17.35
49593;BMP280;35499;51.482;4.264;2023-07-31T03:33:17;100909.03;;;17.33
49593;BMP280;35499;51.482;4.264;2023-07-31T03:35:43;100912.38;;;17.35
49593;BMP280;35499;51.482;4.264;2023-07-31T03:38:08;100913.25;;;17.36
49593;BMP280;35499;51.482;4.264;2023-07-31T03:40:33;100901.09;;;17.36
49593;BMP280;35499;51.482;4.264;2023-07-31T03:42:59;100892.34;;;17.38
49593;BMP280;35499;51.482;4.264;2023-07-31T03:45:24;100888.84;;;17.39
49593;BMP280;35499;51.482;4.264;2023-07-31T03:47:49;100882.69;;;17.42
49593;BMP280;35499;51.482;4.264;2023-07-31T03:50:15;100881.84;;;17.41
49593;BMP280;35499;51.482;4.264;2023-07-31T03:52:41;100873.16;;;17.42
49593;BMP280;35499;51.482;4.264;2023-07-31T03:55:07;100880.03;;;17.43
49593;BMP280;35499;51.482;4.264;2023-07-31T03:57:32;100875.66;;;17.44
49593;BMP280;35499;51.482;4.264;2023-07-31T03:59:57;100865.28;;;17.44
49593;BMP280;35499;51.482;4.264;2023-07-31T04:02:23;100864.56;;;17.40
49593;BMP280;35499;51.482;4.264;2023-07-31T04:04:48;100859.50;;;17.38
49593;BMP280;35499;51.482;4.264;2023-07-31T04:07:13;100864.94;;;17.32
49593;BMP280;35499;51.482;4.264;2023-07-31T04:09:39;100858.31;;;17.25
49593;BMP280;35499;51.482;4.264;2023-07-31T04:12:04;100855.09;;;17.19
49593;BMP280;35499;51.482;4.264;2023-07-31T04:14:29;100839.72;;;17.14
49593;BMP280;35499;51.482;4.264;2023-07-31T04:16:55;100838.16;;;17.10
49593;BMP280;35499;51.482;4.264;2023-07-31T04:19:20;100840.94;;;17.06
49593;BMP280;35499;51.482;4.264;2023-07-31T04:21:45;100835.94;;;17.02
49593;BMP280;35499;51.482;4.264;2023-07-31T04:24:10;100834.25;;;17.01
49593;BMP280;35499;51.482;4.264;2023-07-31T04:26:36;100844.66;;;16.99
49593;BMP280;35499;51.482;4.264;2023-07-31T04:29:01;100836.97;;;16.98
49593;BMP280;35499;51.482;4.264;2023-07-31T04:31:26;100829.22;;;16.96
49593;BMP280;35499;51.482;4.264;2023-07-31T04:33:51;100837.88;;;16.97
49593;BMP280;35499;51.482;4.264;2023-07-31T04:36:17;100835.38;;;16.94
49593;BMP280;35499;51.482;4.264;2023-07-31T04:38:42;100839.78;;;16.92
49593;BMP280;35499;51.482;4.264;2023-07-31T04:41:07;100840.72;;;16.89
49593;BMP280;35499;51.482;4.264;2023-07-31T04:43:33;100837.53;;;16.83
49593;BMP280;35499;51.482;4.264;2023-07-31T04:45:58;100839.31;;;16.81
49593;BMP280;35499;51.482;4.264;2023-07-31T04:48:23;100828.28;;;16.76
49593;BMP280;35499;51.482;4.264;2023-07-31T04:50:49;100822.44;;;16.71
49593;BMP280;35499;51.482;4.264;2023-07-31T04:53:14;100819.03;;;16.69
49593;BMP280;35499;51.482;4.264;2023-07-31T04:55:39;100814.69;;;16.70
49593;BMP280;35499;51.482;4.264;2023-07-31T04:58:05;100819.00;;;16.71
49593;BMP280;35499;51.482;4.264;2023-07-31T05:00:30;100813.81;;;16.71
49593;BMP280;35499;51.482;4.264;2023-07-31T05:02:55;100812.91;;;16.72
49593;BMP280;35499;51.482;4.264;2023-07-31T05:05:21;100808.56;;;16.72
49593;BMP280;35499;51.482;4.264;2023-07-31T05:07:46;100811.16;;;16.72
49593;BMP280;35499;51.482;4.264;2023-07-31T05:10:11;100815.44;;;16.73
49593;BMP280;35499;51.482;4.264;2023-07-31T05:12:36;100809.28;;;16.76
49593;BMP280;35499;51.482;4.264;2023-07-31T05:15:02;100799.75;;;16.76
49593;BMP280;35499;51.482;4.264;2023-07-31T05:17:29;100800.47;;;16.80
49593;BMP280;35499;51.482;4.264;2023-07-31T05:19:54;100791.94;;;16.78
49593;BMP280;35499;51.482;4.264;2023-07-31T05:22:19;100794.34;;;16.82
49593;BMP280;35499;51.482;4.264;2023-07-31T05:24:45;100795.03;;;16.85
49593;BMP280;35499;51.482;4.264;2023-07-31T05:27:10;100797.59;;;16.87
49593;BMP280;35499;51.482;4.264;2023-07-31T05:29:35;100797.44;;;16.90
49593;BMP280;35499;51.482;4.264;2023-07-31T05:32:00;100795.63;;;16.93
49593;BMP280;35499;51.482;4.264;2023-07-31T05:34:26;100788.56;;;16.97
49593;BMP280;35499;51.482;4.264;2023-07-31T05:36:51;100782.34;;;17.01
49593;BMP280;35499;51.482;4.264;2023-07-31T05:39:17;100790.03;;;17.03
49593;BMP280;35499;51.482;4.264;2023-07-31T05:41:44;100784.84;;;17.03
49593;BMP280;35499;51.482;4.264;2023-07-31T05:44:10;100789.03;;;17.06
49593;BMP280;35499;51.482;4.264;2023-07-31T05:46:35;100786.44;;;17.06
49593;BMP280;35499;51.482;4.264;2023-07-31T05:49:00;100791.59;;;17.07
49593;BMP280;35499;51.482;4.264;2023-07-31T05:51:26;100785.50;;;17.08
49593;BMP280;35499;51.482;4.264;2023-07-31T05:53:51;100795.78;;;17.10
49593;BMP280;35499;51.482;4.264;2023-07-31T05:56:16;100794.84;;;17.12
49593;BMP280;35499;51.482;4.264;2023-07-31T05:58:42;100789.63;;;17.12
49593;BMP280;35499;51.482;4.264;2023-07-31T06:01:07;100783.59;;;17.12
49593;BMP280;35499;51.482;4.264;2023-07-31T06:03:32;100790.41;;;17.14
49593;BMP280;35499;51.482;4.264;2023-07-31T06:05:58;100786.00;;;17.16
49593;BMP280;35499;51.482;4.264;2023-07-31T06:08:23;100780.03;;;17.14
49593;BMP280;35499;51.482;4.264;2023-07-31T06:10:48;100782.63;;;17.14
49593;BMP280;35499;51.482;4.264;2023-07-31T06:13:14;100772.38;;;17.11
49593;BMP280;35499;51.482;4.264;2023-07-31T06:15:39;100770.69;;;17.10
49593;BMP280;35499;51.482;4.264;2023-07-31T06:18:04;100775.03;;;17.10
49593;BMP280;35499;51.482;4.264;2023-07-31T06:20:33;100767.19;;;17.11
49593;BMP280;35499;51.482;4.264;2023-07-31T06:22:59;100771.53;;;17.11
49593;BMP280;35499;51.482;4.264;2023-07-31T06:25:24;100777.44;;;17.14
49593;BMP280;35499;51.482;4.264;2023-07-31T06:27:49;100767.91;;;17.15
49593;BMP280;35499;51.482;4.264;2023-07-31T06:30:15;100764.41;;;17.16
49593;BMP280;35499;51.482;4.264;2023-07-31T06:32:40;100772.13;;;17.17
49593;BMP280;35499;51.482;4.264;2023-07-31T06:35:08;100767.69;;;17.19
49593;BMP280;35499;51.482;4.264;2023-07-31T06:37:33;100770.19;;;17.22
49593;BMP280;35499;51.482;4.264;2023-07-31T06:39:58;100758.81;;;17.24
49593;BMP280;35499;51.482;4.264;2023-07-31T06:42:24;100765.59;;;17.28
49593;BMP280;35499;51.482;4.264;2023-07-31T06:44:49;100754.22;;;17.31
49593;BMP280;35499;51.482;4.264;2023-07-31T06:47:15;100761.97;;;17.32
49593;BMP280;35499;51.482;4.264;2023-07-31T06:49:40;100758.38;;;17.35
49593;BMP280;35499;51.482;4.264;2023-07-31T06:52:05;100752.28;;;17.36
49593;BMP280;35499;51.482;4.264;2023-07-31T06:54:31;100753.06;;;17.38
49593;BMP280;35499;51.482;4.264;2023-07-31T06:56:57;100762.50;;;17.38
49593;BMP280;35499;51.482;4.264;2023-07-31T06:59:22;100755.66;;;17.38
49593;BMP280;35499;51.482;4.264;2023-07-31T07:01:47;100745.13;;;17.40
49593;BMP280;35499;51.482;4.264;2023-07-31T07:04:13;100751.22;;;17.39
49593;BMP280;35499;51.482;4.264;2023-07-31T07:06:38;100737.41;;;17.39
49593;BMP280;35499;51.482;4.264;2023-07-31T07:09:04;100757.06;;;17.44
49593;BMP280;35499;51.482;4.264;2023-07-31T07:11:29;100752.03;;;17.41
49593;BMP280;35499;51.482;4.264;2023-07-31T07:13:54;100754.41;;;17.46
49593;BMP280;35499;51.482;4.264;2023-07-31T07:16:20;100752.53;;;17.49
49593;BMP280;35499;51.482;4.264;2023-07-31T07:18:45;100755.06;;;17.51
49593;BMP280;35499;51.482;4.264;2023-07-31T07:21:11;100766.31;;;17.51
49593;BMP280;35499;51.482;4.264;2023-07-31T07:23:40;100741.19;;;17.52
49593;BMP280;35499;51.482;4.264;2023-07-31T07:26:06;100741.88;;;17.55
49593;BMP280;35499;51.482;4.264;2023-07-31T07:28:31;100754.66;;;17.59
49593;BMP280;35499;51.482;4.264;2023-07-31T07:30:56;100747.72;;;17.60
49593;BMP280;35499;51.482;4.264;2023-07-31T07:33:22;100736.47;;;17.59
49593;BMP280;35499;51.482;4.264;2023-07-31T07:35:47;100737.28;;;17.61
49593;BMP280;35499;51.482;4.264;2023-07-31T07:38:16;100741.47;;;17.64
49593;BMP280;35499;51.482;4.264;2023-07-31T07:40:41;100742.25;;;17.66
49593;BMP280;35499;51.482;4.264;2023-07-31T07:43:07;100739.66;;;17.66
49593;BMP280;35499;51.482;4.264;2023-07-31T07:45:32;100738.63;;;17.70
49593;BMP280;35499;51.482;4.264;2023-07-31T07:47:58;100739.41;;;17.72
49593;BMP280;35499;51.482;4.264;2023-07-31T07:50:24;100741.94;;;17.73
49593;BMP280;35499;51.482;4.264;2023-07-31T07:52:49;100745.34;;;17.73
49593;BMP280;35499;51.482;4.264;2023-07-31T07:55:15;100734.06;;;17.74
49593;BMP280;35499;51.482;4.264;2023-07-31T07:57:40;100746.84;;;17.79
49593;BMP280;35499;51.482;4.264;2023-07-31T08:00:06;100730.13;;;17.86
49593;BMP280;35499;51.482;4.264;2023-07-31T08:02:31;100733.13;;;17.95
49593;BMP280;35499;51.482;4.264;2023-07-31T08:04:57;100724.00;;;18.05
49593;BMP280;35499;51.482;4.264;2023-07-31T08:07:22;100723.47;;;18.16
49593;BMP280;35499;51.482;4.264;2023-07-31T08:09:47;100726.47;;;18.26
49593;BMP280;35499;51.482;4.264;2023-07-31T08:12:13;100737.50;;;18.30
49593;BMP280;35499;51.482;4.264;2023-07-31T08:14:38;100731.25;;;18.34
49593;BMP280;35499;51.482;4.264;2023-07-31T08:17:03;100726.63;;;18.41
49593;BMP280;35499;51.482;4.264;2023-07-31T08:19:29;100733.34;;;18.45
49593;BMP280;35499;51.482;4.264;2023-07-31T08:21:54;100737.56;;;18.47
49593;BMP280;35499;51.482;4.264;2023-07-31T08:24:20;100733.91;;;18.51
49593;BMP280;35499;51.482;4.264;2023-07-31T08:26:45;100734.69;;;18.53
49593;BMP280;35499;51.482;4.264;2023-07-31T08:29:10;100739.81;;;18.54
49593;BMP280;35499;51.482;4.264;2023-07-31T08:31:36;100726.66;;;18.57
49593;BMP280;35499;51.482;4.264;2023-07-31T08:34:01;100718.53;;;18.63
49593;BMP280;35499;51.482;4.264;2023-07-31T08:36:26;100716.41;;;18.72
49593;BMP280;35499;51.482;4.264;2023-07-31T08:38:52;100715.28;;;18.78
49593;BMP280;35499;51.482;4.264;2023-07-31T08:41:17;100726.59;;;18.77
49593;BMP280;35499;51.482;4.264;2023-07-31T08:43:46;100720.47;;;18.78
49593;BMP280;35499;51.482;4.264;2023-07-31T08:46:12;100705.78;;;18.77
49593;BMP280;35499;51.482;4.264;2023-07-31T08:48:41;100709.13;;;18.79
49593;BMP280;35499;51.482;4.264;2023-07-31T08:51:07;100710.53;;;18.85
49593;BMP280;35499;51.482;4.264;2023-07-31T08:53:32;100701.41;;;18.94
49593;BMP280;35499;51.482;4.264;2023-07-31T08:55:58;100705.16;;;19.05
49593;BMP280;35499;51.482;4.264;2023-07-31T08:58:25;100727.09;;;19.17
49593;BMP280;35499;51.482;4.264;2023-07-31T09:04:31;100704.53;;;19.50
49593;BMP280;35499;51.482;4.264;2023-07-31T09:07:00;100696.44;;;19.55
49593;BMP280;35499;51.482;4.264;2023-07-31T09:09:25;100707.75;;;19.54
49593;BMP280;35499;51.482;4.264;2023-07-31T09:11:51;100702.69;;;19.52
49593;BMP280;35499;51.482;4.264;2023-07-31T09:14:18;100706.34;;;19.48
49593;BMP280;35499;51.482;4.264;2023-07-31T09:16:57;100713.56;;;19.43
49593;BMP280;35499;51.482;4.264;2023-07-31T09:19:35;100697.94;;;19.43
49593;BMP280;35499;51.482;4.264;2023-07-31T09:22:03;100709.19;;;19.43
49593;BMP280;35499;51.482;4.264;2023-07-31T09:24:30;100708.34;;;19.43
49593;BMP280;35499;51.482;4.264;2023-07-31T09:26:57;100699.63;;;19.44
49593;BMP280;35499;51.482;4.264;2023-07-31T09:29:24;100704.69;;;19.47
49593;BMP280;35499;51.482;4.264;2023-07-31T09:31:50;100699.38;;;19.48
49593;BMP280;35499;51.482;4.264;2023-07-31T09:34:15;100693.25;;;19.49
49593;BMP280;35499;51.482;4.264;2023-07-31T09:36:50;100694.03;;;19.51
49593;BMP280;35499;51.482;4.264;2023-07-31T09:39:19;100685.84;;;19.58
49593;BMP280;35499;51.482;4.264;2023-07-31T09:41:54;100688.44;;;19.58
49593;BMP280;35499;51.482;4.264;2023-07-31T09:44:20;100686.69;;;19.59
49593;BMP280;35499;51.482;4.264;2023-07-31T09:46:45;100679.56;;;19.62
49593;BMP280;35499;51.482;4.264;2023-07-31T09:49:12;100688.91;;;19.66
49593;BMP280;35499;51.482;4.264;2023-07-31T09:51:38;100682.84;;;19.66
49593;BMP280;35499;51.482;4.264;2023-07-31T09:54:14;100678.47;;;19.66
49593;BMP280;35499;51.482;4.264;2023-07-31T09:56:49;100680.25;;;19.66
49593;BMP280;35499;51.482;4.264;2023-07-31T09:59:16;100680.97;;;19.68
49593;BMP280;35499;51.482;4.264;2023-07-31T10:01:44;100687.03;;;19.68
49593;BMP280;35499;51.482;4.264;2023-07-31T10:04:11;100690.59;;;19.67
49593;BMP280;35499;51.482;4.264;2023-07-31T10:06:38;100683.75;;;19.65
49593;BMP280;35499;51.482;4.264;2023-07-31T10:09:08;100686.19;;;19.68
49593;BMP280;35499;51.482;4.264;2023-07-31T10:11:48;100685.28;;;19.69
49593;BMP280;35499;51.482;4.264;2023-07-31T10:14:20;100686.38;;;19.65
49593;BMP280;35499;51.482;4.264;2023-07-31T10:16:46;100684.31;;;19.54
49593;BMP280;35499;51.482;4.264;2023-07-31T10:19:12;100701.25;;;19.46
49593;BMP280;35499;51.482;4.264;2023-07-31T10:21:37;100693.66;;;19.42
49593;BMP280;35499;51.482;4.264;2023-07-31T10:24:05;100698.88;;;19.42
49593;BMP280;35499;51.482;4.264;2023-07-31T10:26:32;100694.66;;;19.39
49593;BMP280;35499;51.482;4.264;2023-07-31T10:28:58;100693.81;;;19.39
49593;BMP280;35499;51.482;4.264;2023-07-31T10:31:25;100691.22;;;19.39
49593;BMP280;35499;51.482;4.264;2023-07-31T10:33:52;100695.50;;;19.40
49593;BMP280;35499;51.482;4.264;2023-07-31T10:36:18;100701.38;;;19.43
49593;BMP280;35499;51.482;4.264;2023-07-31T10:38:45;100689.91;;;19.47
49593;BMP280;35499;51.482;4.264;2023-07-31T10:41:10;100683.63;;;19.51
49593;BMP280;35499;51.482;4.264;2023-07-31T10:43:37;100683.47;;;19.54
49593;BMP280;35499;51.482;4.264;2023-07-31T10:46:11;100676.19;;;19.60
49593;BMP280;35499;51.482;4.264;2023-07-31T10:48:38;100656.78;;;19.66
49593;BMP280;35499;51.482;4.264;2023-07-31T10:51:12;100666.97;;;19.70
49593;BMP280;35499;51.482;4.264;2023-07-31T10:53:39;100659.81;;;19.73
49593;BMP280;35499;51.482;4.264;2023-07-31T10:56:07;100651.75;;;19.78
49593;BMP280;35499;51.482;4.264;2023-07-31T10:58:33;100648.06;;;19.82
49593;BMP280;35499;51.482;4.264;2023-07-31T11:01:04;100655.53;;;19.88
49593;BMP280;35499;51.482;4.264;2023-07-31T11:03:46;100654.16;;;19.97
49593;BMP280;35499;51.482;4.264;2023-07-31T11:06:14;100646.41;;;20.11
49593;BMP280;35499;51.482;4.264;2023-07-31T11:08:44;100643.47;;;20.17
49593;BMP280;35499;51.482;4.264;2023-07-31T11:11:15;100649.28;;;20.22
49593;BMP280;35499;51.482;4.264;2023-07-31T11:16:13;100631.19;;;20.34
49593;BMP280;35499;51.482;4.264;2023-07-31T11:18:40;100634.31;;;20.40
49593;BMP280;35499;51.482;4.264;2023-07-31T11:21:06;100626.88;;;20.48
49593;BMP280;35499;51.482;4.264;2023-07-31T11:23:31;100621.50;;;20.51
49593;BMP280;35499;51.482;4.264;2023-07-31T11:26:00;100612.88;;;20.64
49593;BMP280;35499;51.482;4.264;2023-07-31T11:28:25;100612.09;;;20.77
49593;BMP280;35499;51.482;4.264;2023-07-31T11:30:51;100607.31;;;20.83
49593;BMP280;35499;51.482;4.264;2023-07-31T11:33:16;100614.31;;;20.83
49593;BMP280;35499;51.482;4.264;2023-07-31T11:35:45;100623.44;;;20.76
49593;BMP280;35499;51.482;4.264;2023-07-31T11:38:21;100616.22;;;20.66
49593;BMP280;35499;51.482;4.264;2023-07-31T11:40:48;100630.47;;;20.61
49593;BMP280;35499;51.482;4.264;2023-07-31T11:43:14;100628.22;;;20.55
49593;BMP280;35499;51.482;4.264;2023-07-31T11:45:45;100623.34;;;20.49
49593;BMP280;35499;51.482;4.264;2023-07-31T11:48:18;100630.44;;;20.47
49593;BMP280;35499;51.482;4.264;2023-07-31T11:50:44;100620.06;;;20.45
49593;BMP280;35499;51.482;4.264;2023-07-31T11:53:11;100617.38;;;20.47
49593;BMP280;35499;51.482;4.264;2023-07-31T11:55:37;100588.50;;;20.50
49593;BMP280;35499;51.482;4.264;2023-07-31T11:58:03;100589.34;;;20.50
49593;BMP280;35499;51.482;4.264;2023-07-31T12:00:29;100579.75;;;20.51
49593;BMP280;35499;51.482;4.264;2023-07-31T12:02:54;100574.19;;;20.57
49593;BMP280;35499;51.482;4.264;2023-07-31T12:05:21;100569.00;;;20.70
49593;BMP280;35499;51.482;4.264;2023-07-31T12:07:54;100574.41;;;20.81
49593;BMP280;35499;51.482;4.264;2023-07-31T12:10:27;100575.34;;;20.80
49593;BMP280;35499;51.482;4.264;2023-07-31T12:13:09;100577.97;;;20.80
49593;BMP280;35499;51.482;4.264;2023-07-31T12:15:43;100571.03;;;20.79
49593;BMP280;35499;51.482;4.264;2023-07-31T12:18:13;100570.47;;;20.74
49593;BMP280;35499;51.482;4.264;2023-07-31T12:20:47;100569.16;;;20.67
49593;BMP280;35499;51.482;4.264;2023-07-31T12:23:22;100561.84;;;20.59
49593;BMP280;35499;51.482;4.264;2023-07-31T12:26:14;100562.03;;;20.42
49593;BMP280;35499;51.482;4.264;2023-07-31T12:31:14;100580.09;;;20.30
49593;BMP280;35499;51.482;4.264;2023-07-31T12:33:41;100582.19;;;20.24
49593;BMP280;35499;51.482;4.264;2023-07-31T12:36:17;100580.63;;;20.21
49593;BMP280;35499;51.482;4.264;2023-07-31T12:38:44;100574.56;;;20.21
49593;BMP280;35499;51.482;4.264;2023-07-31T12:41:10;100586.00;;;20.18
49593;BMP280;35499;51.482;4.264;2023-07-31T12:43:36;100584.56;;;20.13
49593;BMP280;35499;51.482;4.264;2023-07-31T12:46:02;100592.50;;;20.11
49593;BMP280;35499;51.482;4.264;2023-07-31T12:48:28;100590.81;;;20.10
49593;BMP280;35499;51.482;4.264;2023-07-31T12:50:54;100585.50;;;20.12
49593;BMP280;35499;51.482;4.264;2023-07-31T12:53:19;100573.91;;;20.17
49593;BMP280;35499;51.482;4.264;2023-07-31T12:55:44;100571.94;;;20.21
49593;BMP280;35499;51.482;4.264;2023-07-31T12:58:10;100558.56;;;20.26
49593;BMP280;35499;51.482;4.264;2023-07-31T13:00:35;100559.31;;;20.28
49593;BMP280;35499;51.482;4.264;2023-07-31T13:03:01;100549.97;;;20.25
49593;BMP280;35499;51.482;4.264;2023-07-31T13:05:27;100559.66;;;20.23
49593;BMP280;35499;51.482;4.264;2023-07-31T13:07:52;100545.88;;;20.21
49593;BMP280;35499;51.482;4.264;2023-07-31T13:10:17;100543.25;;;20.21
49593;BMP280;35499;51.482;4.264;2023-07-31T13:12:43;100553.13;;;20.16
49593;BMP280;35499;51.482;4.264;2023-07-31T13:15:08;100552.53;;;20.11
49593;BMP280;35499;51.482;4.264;2023-07-31T13:17:35;100556.97;;;20.09
49593;BMP280;35499;51.482;4.264;2023-07-31T13:20:00;100553.06;;;20.02
49593;BMP280;35499;51.482;4.264;2023-07-31T13:22:26;100553.81;;;19.89
49593;BMP280;35499;51.482;4.264;2023-07-31T13:24:51;100564.94;;;19.77
49593;BMP280;35499;51.482;4.264;2023-07-31T13:27:16;100559.47;;;19.67
49593;BMP280;35499;51.482;4.264;2023-07-31T13:29:44;100545.16;;;19.58
49593;BMP280;35499;51.482;4.264;2023-07-31T13:32:09;100540.13;;;19.55
49593;BMP280;35499;51.482;4.264;2023-07-31T13:34:35;100549.75;;;19.53
49593;BMP280;35499;51.482;4.264;2023-07-31T13:37:00;100550.84;;;19.50
49593;BMP280;35499;51.482;4.264;2023-07-31T13:39:25;100551.84;;;19.47
49593;BMP280;35499;51.482;4.264;2023-07-31T13:41:50;100542.59;;;19.42
49593;BMP280;35499;51.482;4.264;2023-07-31T13:44:16;100551.66;;;19.35
49593;BMP280;35499;51.482;4.264;2023-07-31T13:46:41;100537.19;;;19.30
49593;BMP280;35499;51.482;4.264;2023-07-31T13:49:06;100543.44;;;19.27
49593;BMP280;35499;51.482;4.264;2023-07-31T13:51:32;100543.75;;;19.21
49593;BMP280;35499;51.482;4.264;2023-07-31T13:53:57;100543.03;;;19.18
49593;BMP280;35499;51.482;4.264;2023-07-31T13:56:22;100527.41;;;19.18
49593;BMP280;35499;51.482;4.264;2023-07-31T13:58:47;100537.03;;;19.17
49593;BMP280;35499;51.482;4.264;2023-07-31T14:01:13;100528.38;;;19.17
49593;BMP280;35499;51.482;4.264;2023-07-31T14:03:38;100520.56;;;19.17